Time;durP1;ratioP1;P1;durP2;ratioP2;P2;SDS_P1;SDS_P2;PMS_P1;PMS_P2;Temp;Humidity;BMP_temperature;BMP_pressure;BME280_temperature;BME280_humidity;BME280_pressure;Samples;Min_cycle;Max_cycle;Signal;HPM_P1;HPM_P2
2021/12/16 00:04:21;;;;;;;5.83;3.63;;;12.10;71.60;;;15.11;54.06;103091.50;4929060;29;20259;-51
2021/12/16 00:09:14;;;;;;;3.53;3.20;;;12.10;71.60;;;15.12;54.39;103078.06;4918354;29;20202;-51
2021/12/16 00:29:11;;;;;;;4.93;3.97;;;12.20;71.70;;;15.16;54.46;103073.31;4917207;29;20237;-50
2021/12/16 00:33:42;;;;;;;4.90;3.80;;;12.20;71.70;;;15.20;54.24;103080.00;4917744;29;20531;-52
2021/12/16 00:36:13;;;;;;;4.30;3.90;;;12.20;71.60;;;15.21;54.10;103087.00;4916872;29;20528;-51
2021/12/16 00:38:45;;;;;;;4.07;3.40;;;12.20;71.70;;;15.24;54.12;103094.63;4917383;29;20202;-51
2021/12/16 00:41:12;;;;;;;7.37;4.03;;;12.20;71.70;;;15.26;53.86;103093.50;4919908;29;20198;-52
2021/12/16 00:43:50;;;;;;;5.07;4.30;;;12.20;71.80;;;15.26;54.05;103096.16;4921450;29;20559;-51
2021/12/16 00:46:44;;;;;;;7.07;4.77;;;12.20;71.80;;;15.26;54.17;103090.03;4922722;29;20281;-50
2021/12/16 00:54:38;;;;;;;5.50;4.60;;;12.20;71.80;;;15.14;54.23;103096.50;4920632;29;20587;-52
2021/12/16 00:57:12;;;;;;;8.43;4.90;;;12.20;71.80;;;15.10;54.24;103090.66;4928044;29;20568;-50
2021/12/16 00:59:44;;;;;;;5.77;4.57;;;12.10;71.80;;;15.07;54.41;103087.47;4959346;28;20654;-54
2021/12/16 01:02:32;;;;;;;7.33;5.80;;;12.10;72.00;;;15.04;54.48;103085.09;4941812;29;20213;-52
2021/12/16 01:35:31;;;;;;;10.37;7.93;;;11.80;73.20;;;14.65;55.59;103098.47;4960143;28;20232;-50
2021/12/16 01:38:47;;;;;;;10.97;8.03;;;11.70;74.10;;;14.60;55.93;103098.06;4960364;29;20541;-50
2021/12/16 01:57:11;;;;;;;11.10;7.80;;;11.70;74.80;;;14.73;56.39;103119.81;4940933;29;20276;-52
2021/12/16 01:59:41;;;;;;;10.53;7.57;;;11.70;74.90;;;14.78;56.12;103125.53;4941287;29;20194;-52
2021/12/16 02:10:46;;;;;;;12.23;9.10;;;11.80;75.00;;;14.73;56.63;103125.13;4829830;29;20738;-52
2021/12/16 02:33:36;;;;;;;11.90;9.00;;;11.80;75.70;;;14.84;57.03;103132.91;4843355;29;20216;-49
2021/12/16 02:35:33;;;;;;;11.20;8.93;;;11.90;75.80;;;14.88;57.00;103130.81;4830205;29;20323;-49
2021/12/16 02:38:07;;;;;;;14.93;9.77;;;11.90;76.00;;;14.91;56.92;103143.75;4824360;29;20205;-50
2021/12/16 02:40:35;;;;;;;17.83;9.90;;;11.90;76.10;;;14.96;56.93;103145.97;4835100;29;20206;-48
2021/12/16 02:44:05;;;;;;;16.67;10.60;;;11.90;76.10;;;15.01;56.83;103143.72;4900779;29;20199;-49
2021/12/16 02:48:44;;;;;;;14.20;10.10;;;11.90;76.10;;;15.08;57.22;103155.44;4919575;29;20198;-53
2021/12/16 02:51:16;;;;;;;14.53;10.50;;;12.00;76.20;;;15.11;56.81;103161.31;4919806;29;20269;-53
2021/12/16 02:53:49;;;;;;;12.53;10.23;;;12.00;76.20;;;15.15;56.75;103154.72;4919591;29;20689;-51
2021/12/16 02:56:17;;;;;;;14.57;10.90;;;12.00;76.30;;;15.18;56.73;103161.56;4929193;29;20222;-51
2021/12/16 02:58:48;;;;;;;15.60;10.40;;;12.00;76.20;;;15.21;56.86;103167.41;4937978;29;20285;-51
2021/12/16 03:01:28;;;;;;;18.60;11.30;;;12.10;76.30;;;15.25;56.91;103167.94;4937662;29;20197;-52
2021/12/16 03:03:58;;;;;;;13.67;10.03;;;12.00;76.20;;;15.28;56.56;103162.38;4937528;29;20615;-53
2021/12/16 03:06:29;;;;;;;13.00;9.57;;;12.10;76.30;;;15.31;56.45;103162.03;4937556;29;20218;-52
2021/12/16 03:09:01;;;;;;;15.63;10.90;;;12.10;76.20;;;15.31;56.56;103167.34;4937930;29;20273;-50
2021/12/16 03:11:48;;;;;;;13.20;10.13;;;12.10;76.30;;;15.32;56.64;103159.28;4941997;29;20233;-51
2021/12/16 03:14:25;;;;;;;14.30;10.47;;;12.10;76.30;;;15.33;56.64;103165.41;4901623;29;20195;-50
2021/12/16 03:21:57;;;;;;;14.73;10.17;;;12.20;76.50;;;15.39;56.73;103159.50;4920021;29;20183;-51
2021/12/16 03:35:13;;;;;;;13.23;10.03;;;12.30;76.50;;;15.39;56.94;103180.75;4924868;29;20226;-49
2021/12/16 03:37:41;;;;;;;21.17;11.33;;;12.30;76.50;;;15.42;57.00;103180.47;4918800;29;20207;-51
2021/12/16 03:40:14;;;;;;;16.00;10.97;;;12.30;76.50;;;15.41;56.97;103178.78;4918598;29;20584;-51
2021/12/16 03:42:50;;;;;;;15.43;12.40;;;12.30;76.40;;;15.40;56.88;103167.31;4918169;29;20190;-52
2021/12/16 03:48:20;;;;;;;17.50;12.37;;;12.40;77.30;;;15.42;57.13;103177.81;4937364;29;20198;-53
2021/12/16 03:50:49;;;;;;;18.57;12.50;;;12.30;76.40;;;15.43;57.13;103171.50;4929650;29;20521;-50
2021/12/16 03:53:17;;;;;;;17.30;11.20;;;12.30;76.50;;;15.45;57.32;103182.88;4918106;29;20528;-51
2021/12/16 03:55:48;;;;;;;15.10;11.03;;;12.40;76.70;;;15.47;57.25;103183.56;4917672;29;20210;-51
2021/12/16 03:58:17;;;;;;;13.83;11.90;;;12.30;76.60;;;15.49;57.24;103181.59;4918005;29;20226;-53
2021/12/16 04:00:53;;;;;;;18.53;12.70;;;12.40;76.80;;;15.48;56.87;103179.91;4918196;29;20198;-52
2021/12/16 04:03:21;;;;;;;23.00;12.40;;;12.40;76.80;;;15.47;57.21;103172.94;4898899;29;20222;-51
2021/12/16 04:05:50;;;;;;;15.50;11.73;;;12.40;76.90;;;15.50;57.09;103184.06;4898873;29;20587;-51
2021/12/16 04:08:18;;;;;;;20.67;12.40;;;12.40;76.90;;;15.53;56.92;103182.94;4911055;29;20603;-51
2021/12/16 04:11:05;;;;;;;16.37;12.73;;;12.40;76.90;;;15.52;56.86;103186.59;4918417;29;20195;-52
2021/12/16 04:13:42;;;;;;;16.03;10.73;;;12.40;76.90;;;15.54;57.04;103180.16;4918087;29;20194;-52
2021/12/16 04:16:10;;;;;;;17.77;12.63;;;12.40;76.90;;;15.59;57.08;103188.50;4916792;29;20222;-50
2021/12/16 04:18:37;;;;;;;10.83;9.73;;;12.40;76.80;;;15.63;56.88;103188.22;4918575;29;20206;-50
2021/12/16 04:21:08;;;;;;;20.13;11.80;;;12.40;76.90;;;15.65;57.11;103195.06;4917955;29;20191;-53
2021/12/16 04:23:35;;;;;;;19.60;13.70;;;12.40;76.90;;;15.66;56.82;103199.41;4917285;29;20190;-51
2021/12/16 04:26:04;;;;;;;19.90;12.20;;;12.40;76.80;;;15.66;57.01;103202.06;4917310;29;20225;-52
2021/12/16 04:28:31;;;;;;;20.87;12.73;;;12.40;76.90;;;15.65;56.89;103196.88;4917515;29;20194;-50
2021/12/16 04:30:59;;;;;;;18.30;12.70;;;12.40;77.70;;;15.64;56.92;103201.38;4917328;29;20281;-52
2021/12/16 04:33:28;;;;;;;20.43;12.23;;;12.40;77.80;;;15.64;56.76;103193.41;4918024;29;20294;-51
2021/12/16 04:35:56;;;;;;;18.77;12.10;;;12.40;77.10;;;15.67;57.35;103201.06;4917298;29;20234;-52
2021/12/16 04:38:23;;;;;;;20.73;11.87;;;12.50;77.30;;;15.68;57.09;103194.78;4917125;29;20674;-52
2021/12/16 04:40:50;;;;;;;18.30;12.07;;;12.50;77.30;;;15.70;56.96;103184.84;4917821;29;20217;-51
2021/12/16 04:43:21;;;;;;;19.03;12.70;;;12.50;77.40;;;15.68;57.06;103197.44;4917840;29;20198;-51
2021/12/16 04:45:51;;;;;;;19.73;13.13;;;12.50;77.30;;;15.68;56.91;103204.53;4916992;29;20397;-52
2021/12/16 04:48:19;;;;;;;19.67;13.17;;;12.50;77.30;;;15.66;57.12;103202.06;4916622;29;20281;-52
2021/12/16 04:50:47;;;;;;;19.33;12.40;;;12.50;77.40;;;15.65;57.34;103192.41;4922812;29;20200;-53
2021/12/16 04:53:14;;;;;;;17.17;12.17;;;12.50;77.50;;;15.66;57.40;103202.06;4936305;29;20202;-50
2021/12/16 04:55:42;;;;;;;16.43;12.37;;;12.50;77.40;;;15.68;57.34;103207.19;4935994;29;20289;-51
2021/12/16 04:58:09;;;;;;;16.47;12.17;;;12.50;77.40;;;15.70;57.34;103221.16;4933941;29;20213;-52
2021/12/16 05:00:38;;;;;;;21.47;12.60;;;12.60;77.50;;;15.71;57.25;103223.69;4955753;28;20204;-51
2021/12/16 05:03:05;;;;;;;21.50;14.87;;;12.50;77.40;;;15.71;57.51;103229.00;4955694;29;20203;-53
2021/12/16 05:05:33;;;;;;;21.70;13.47;;;12.50;77.30;;;15.72;57.32;103235.13;4954841;29;20228;-52
2021/12/16 05:08:01;;;;;;;16.47;11.77;;;12.50;77.40;;;15.70;57.39;103237.09;4941841;29;20194;-51
2021/12/16 05:10:28;;;;;;;20.83;13.77;;;12.50;77.40;;;15.69;57.42;103240.75;4940375;29;20220;-51
2021/12/16 05:12:58;;;;;;;18.50;13.10;;;12.60;77.50;;;15.68;57.62;103239.91;4954283;29;20200;-52
2021/12/16 05:15:33;;;;;;;21.47;13.63;;;12.50;77.50;;;15.67;57.59;103240.88;4954955;29;20217;-51
2021/12/16 05:18:08;;;;;;;21.93;14.17;;;12.50;77.50;;;15.67;57.60;103243.53;4955672;29;20220;-49
2021/12/16 05:20:41;;;;;;;23.23;13.53;;;12.50;77.50;;;15.70;57.51;103248.56;4955349;29;20197;-51
2021/12/16 05:28:30;;;;;;;22.00;13.07;;;12.60;77.80;;;15.76;57.33;103255.94;4939727;29;20204;-51
2021/12/16 05:30:58;;;;;;;24.37;13.63;;;12.60;77.80;;;15.76;57.34;103255.13;4939024;29;20192;-50
2021/12/16 05:33:28;;;;;;;24.37;14.40;;;12.60;77.70;;;15.73;57.36;103258.06;4939365;29;20542;-51
2021/12/16 05:35:57;;;;;;;24.43;14.57;;;12.60;77.70;;;15.72;57.82;103265.19;4939287;29;20327;-50
2021/12/16 05:38:28;;;;;;;24.20;15.00;;;12.60;77.70;;;15.70;57.33;103272.47;4941612;29;20194;-53
2021/12/16 05:40:57;;;;;;;23.53;15.27;;;12.60;77.70;;;15.68;57.69;103269.13;4939277;29;20516;-50
2021/12/16 05:43:26;;;;;;;26.10;14.20;;;12.60;77.80;;;15.63;57.82;103279.34;4938863;29;20205;-51
2021/12/16 05:45:57;;;;;;;20.73;14.57;;;12.60;77.80;;;15.59;57.84;103283.28;4939265;29;20226;-53
2021/12/16 05:48:29;;;;;;;21.13;14.47;;;12.60;77.80;;;15.59;58.08;103283.28;4938784;29;20604;-51
2021/12/16 05:51:02;;;;;;;22.40;14.37;;;12.50;77.70;;;15.61;57.79;103283.13;4938831;29;20204;-51
2021/12/16 05:53:31;;;;;;;22.77;14.07;;;12.60;77.90;;;15.62;58.14;103288.28;4938824;29;20198;-50
2021/12/16 05:55:59;;;;;;;24.47;15.07;;;12.60;78.00;;;15.62;58.05;103282.16;4947019;29;20209;-51
2021/12/16 05:58:27;;;;;;;25.53;14.80;;;12.50;77.90;;;15.62;58.07;103282.97;4944348;29;20217;-49
2021/12/16 06:01:00;;;;;;;23.30;14.27;;;12.60;78.10;;;15.62;58.24;103282.97;4939009;29;20194;-49
2021/12/16 06:03:30;;;;;;;24.53;14.40;;;12.50;78.00;;;15.62;58.12;103276.84;4939345;29;20631;-50
2021/12/16 06:05:58;;;;;;;24.07;14.93;;;12.50;78.10;;;15.60;58.10;103274.31;4920282;29;20234;-50
2021/12/16 06:08:26;;;;;;;23.43;13.87;;;12.50;78.10;;;15.58;58.24;103276.28;4919247;29;20204;-53
2021/12/16 06:13:37;;;;;;;24.70;13.93;;;12.50;78.20;;;15.55;58.38;103293.31;4919403;29;20206;-51
2021/12/16 06:27:16;;;;;;;19.90;12.77;;;12.50;78.50;;;15.68;58.41;103303.63;4924393;29;20232;-51
2021/12/16 06:29:47;;;;;;;18.70;11.17;;;12.50;78.50;;;15.72;58.14;103306.81;4925859;29;20195;-51
2021/12/16 06:32:16;;;;;;;23.63;13.73;;;12.60;78.70;;;15.77;58.13;103313.38;4921245;29;20198;-51
2021/12/16 06:34:45;;;;;;;24.43;14.20;;;12.60;78.60;;;15.77;57.86;103321.34;4919600;29;20707;-49
2021/12/16 06:37:13;;;;;;;26.83;13.47;;;12.60;78.60;;;15.77;58.07;103328.47;4922589;29;20201;-51
2021/12/16 06:39:41;;;;;;;26.33;14.20;;;12.60;78.50;;;15.75;58.36;103325.97;4920170;29;20191;-51
2021/12/16 06:42:10;;;;;;;23.70;15.63;;;12.60;78.50;;;15.73;58.29;103327.94;4919175;29;20213;-53
2021/12/16 06:44:50;;;;;;;21.63;15.13;;;12.60;78.60;;;15.73;58.31;103341.22;4918699;29;20950;-52
2021/12/16 06:47:23;;;;;;;23.27;13.33;;;12.60;78.70;;;15.73;58.34;103346.53;4919123;29;20747;-52
2021/12/16 06:49:54;;;;;;;20.57;12.20;;;12.60;78.70;;;15.72;58.29;103351.97;4918609;29;20267;-50
2021/12/16 06:52:29;;;;;;;22.93;13.53;;;12.60;78.80;;;15.75;58.24;103349.88;4918237;29;20254;-50
2021/12/16 06:55:07;;;;;;;23.17;14.87;;;12.60;78.90;;;15.76;58.48;103364.81;4917687;29;20214;-50
2021/12/16 06:57:41;;;;;;;26.33;14.50;;;12.60;78.90;;;15.74;58.14;103365.94;4932631;28;20208;-54
2021/12/16 07:00:18;;;;;;;16.90;11.13;;;12.60;78.80;;;15.74;58.21;103360.63;4956490;29;20193;-51
2021/12/16 07:05:30;;;;;;;22.20;12.10;;;12.60;79.00;;;15.78;58.51;103362.88;4955824;29;20275;-52
2021/12/16 07:07:58;;;;;;;17.87;12.33;;;12.60;79.10;;;15.84;58.01;103372.91;4955781;29;20190;-54
2021/12/16 07:10:29;;;;;;;19.90;12.13;;;12.60;79.10;;;15.84;58.23;103378.22;4942771;28;20214;-54
2021/12/16 07:13:06;;;;;;;17.67;11.50;;;12.60;79.10;;;15.85;58.19;103382.56;4936143;29;20269;-52
2021/12/16 07:15:36;;;;;;;20.10;12.93;;;12.70;79.20;;;15.85;58.29;103385.22;4939641;29;20371;-50
2021/12/16 07:18:16;;;;;;;24.10;14.50;;;12.70;79.30;;;15.85;58.41;103387.03;4938829;29;20197;-53
2021/12/16 07:20:51;;;;;;;22.37;12.47;;;12.70;79.40;;;15.86;58.54;103392.19;4918148;29;20229;-53
2021/12/16 07:23:27;;;;;;;25.67;14.03;;;12.70;79.30;;;15.84;58.53;103396.81;4919421;29;20194;-52
2021/12/16 07:25:58;;;;;;;27.07;14.50;;;12.70;79.30;;;15.82;58.37;103400.59;4934454;29;20228;-50
2021/12/16 07:28:27;;;;;;;23.03;14.17;;;12.70;79.40;;;15.78;58.47;103394.75;4920504;29;20631;-53
2021/12/16 07:30:55;;;;;;;20.87;13.70;;;12.60;79.50;;;15.78;58.61;103394.75;4935229;29;20202;-54
2021/12/16 07:33:23;;;;;;;20.97;12.97;;;12.60;79.70;;;15.74;58.45;103393.34;4936105;29;20198;-52
2021/12/16 07:35:58;;;;;;;18.23;12.97;;;12.60;79.70;;;15.72;58.90;103394.47;4917970;29;20221;-51
2021/12/16 07:38:34;;;;;;;25.53;13.43;;;12.60;79.90;;;15.69;58.83;103398.22;4936747;29;20201;-53
2021/12/16 07:41:13;;;;;;;23.50;14.03;;;12.60;79.90;;;15.67;59.00;103402.00;4919647;29;20214;-53
2021/12/16 07:46:52;;;;;;;23.40;14.33;;;12.50;80.30;;;15.68;59.00;103406.34;4877688;29;20231;-52
2021/12/16 07:49:24;;;;;;;21.97;13.03;;;12.50;80.40;;;15.69;59.42;103411.50;4877215;29;20195;-50
2021/12/16 07:51:55;;;;;;;21.03;13.30;;;12.50;80.50;;;15.72;59.01;103416.53;4877467;29;20569;-52
2021/12/16 07:54:24;;;;;;;22.63;13.63;;;12.50;80.60;;;15.73;59.18;103407.63;4877910;29;20699;-52
2021/12/16 07:56:55;;;;;;;22.23;14.03;;;12.50;80.60;;;15.75;59.20;103418.94;4877563;29;20937;-54
2021/12/16 07:59:25;;;;;;;22.50;14.30;;;12.60;80.70;;;15.73;59.16;103425.34;4900601;29;20208;-51
2021/12/16 08:01:54;;;;;;;22.13;13.03;;;12.60;80.60;;;15.73;59.35;103428.84;4890577;29;20207;-52
2021/12/16 08:04:28;;;;;;;29.93;15.83;;;12.60;80.60;;;15.76;59.31;103449.78;4895278;29;20210;-52
2021/12/16 08:07:14;;;;;;;22.57;13.23;;;12.60;80.70;;;15.76;59.21;103447.13;4895512;29;20536;-53
2021/12/16 08:09:43;;;;;;;22.07;13.73;;;12.60;80.60;;;15.76;59.19;103447.13;4896913;29;20206;-51
2021/12/16 08:12:14;;;;;;;18.63;13.07;;;12.60;80.70;;;15.77;59.43;103438.22;4895674;29;20210;-50
2021/12/16 08:14:43;;;;;;;24.93;14.07;;;12.60;80.70;;;15.82;59.55;103443.94;4895664;29;20231;-52
2021/12/16 08:17:13;;;;;;;22.23;14.07;;;12.60;80.70;;;15.82;59.26;103449.25;4909515;29;20201;-51
2021/12/16 08:19:42;;;;;;;24.67;14.03;;;12.60;80.50;;;15.83;59.43;103458.88;4934481;29;20198;-51
2021/12/16 08:22:11;;;;;;;21.13;14.53;;;12.60;80.60;;;15.83;59.02;103447.44;4939244;29;20194;-52
2021/12/16 08:24:40;;;;;;;20.47;12.77;;;12.60;80.80;;;15.85;59.34;103451.63;4937927;28;20312;-53
2021/12/16 08:27:10;;;;;;;23.37;14.17;;;12.60;80.80;;;15.86;59.40;103452.44;4942223;28;20206;-53
2021/12/16 08:29:38;;;;;;;25.73;17.50;;;12.60;81.00;;;15.88;59.03;103447.84;4934971;29;20194;-52
2021/12/16 08:32:08;;;;;;;21.90;13.77;;;12.60;81.10;;;15.89;59.19;103454.81;4936220;29;20202;-53
2021/12/16 08:34:39;;;;;;;20.70;12.87;;;12.60;80.80;;;15.87;59.26;103462.94;4948360;28;20205;-51
2021/12/16 08:37:11;;;;;;;19.57;13.00;;;12.60;80.70;;;15.85;59.39;103464.91;4931566;29;20190;-52
2021/12/16 08:39:39;;;;;;;19.60;13.13;;;12.60;80.80;;;15.84;59.23;103468.53;4920204;29;20213;-50
2021/12/16 08:42:10;;;;;;;22.50;14.30;;;12.60;80.80;;;15.82;59.24;103464.34;4921062;29;20236;-53
2021/12/16 08:44:38;;;;;;;21.33;13.50;;;12.60;80.90;;;15.83;59.64;103466.03;4922301;29;20244;-53
2021/12/16 08:47:10;;;;;;;23.47;14.37;;;12.60;81.00;;;15.85;59.62;103469.38;4919723;29;20237;-50
2021/12/16 08:49:41;;;;;;;20.20;13.20;;;12.60;81.10;;;15.89;59.52;103468.94;4921854;29;20887;-52
2021/12/16 08:52:16;;;;;;;18.80;13.17;;;12.60;81.30;;;15.94;59.22;103466.72;4919210;29;20339;-54
2021/12/16 08:54:44;;;;;;;24.13;14.13;;;12.70;81.50;;;16.00;59.28;103475.91;4937491;28;20224;-53
2021/12/16 08:57:12;;;;;;;22.53;14.33;;;12.70;81.30;;;16.02;59.37;103482.75;4918407;29;20213;-52
2021/12/16 08:59:40;;;;;;;23.00;14.63;;;12.70;81.30;;;16.05;59.39;103502.88;4903866;29;20666;-52
2021/12/16 09:02:08;;;;;;;23.23;15.00;;;12.70;81.10;;;16.05;59.11;103493.09;4914940;29;20230;-51
2021/12/16 09:04:38;;;;;;;24.70;15.23;;;12.70;81.00;;;16.06;58.96;103497.44;4920398;29;20214;-50
2021/12/16 09:07:13;;;;;;;18.73;12.33;;;12.70;81.10;;;16.06;59.11;103505.44;4917118;29;20210;-51
2021/12/16 09:09:44;;;;;;;25.03;15.30;;;12.80;81.10;;;16.08;59.14;103502.63;4917186;29;20320;-50
2021/12/16 09:14:54;;;;;;;25.00;15.70;;;12.80;81.00;;;16.04;59.28;103507.38;4916110;29;20229;-55
2021/12/16 09:17:21;;;;;;;18.17;13.37;;;12.80;81.00;;;16.06;59.48;103516.06;4916250;29;20273;-52
2021/12/16 09:19:54;;;;;;;23.50;15.10;;;12.80;81.00;;;16.07;59.37;103515.06;4917112;29;20199;-52
2021/12/16 09:22:27;;;;;;;21.80;13.67;;;12.80;81.40;;;16.05;58.97;103519.69;4900357;29;20749;-53
2021/12/16 09:24:56;;;;;;;24.53;14.80;;;12.80;80.60;;;16.06;59.36;103526.69;4916676;29;20245;-50
2021/12/16 09:27:26;;;;;;;21.07;13.77;;;12.80;80.80;;;16.05;59.16;103530.31;4917929;29;20209;-52
2021/12/16 09:29:56;;;;;;;21.17;14.17;;;12.80;80.90;;;16.05;59.09;103538.28;4918057;29;20218;-54
2021/12/16 09:32:27;;;;;;;26.37;16.37;;;12.80;80.90;;;16.04;58.96;103544.59;4919310;29;20199;-51
2021/12/16 09:34:57;;;;;;;24.53;15.73;;;12.80;80.90;;;16.03;59.33;103537.59;4918687;29;20226;-53
2021/12/16 09:37:26;;;;;;;23.53;14.37;;;12.70;80.90;;;16.01;59.34;103547.53;4919149;29;20225;-52
2021/12/16 09:39:54;;;;;;;23.53;16.20;;;12.80;81.00;;;16.01;59.25;103544.88;4918717;29;20649;-52
2021/12/16 09:42:21;;;;;;;22.93;16.57;;;12.80;81.20;;;16.03;59.41;103540.25;4918106;29;20217;-51
2021/12/16 09:44:49;;;;;;;18.50;14.23;;;12.80;81.20;;;16.05;59.42;103546.25;4919115;29;20248;-51
2021/12/16 09:47:17;;;;;;;18.50;13.77;;;12.80;81.20;;;16.07;59.47;103544.28;4919353;29;20222;-51
2021/12/16 09:49:44;;;;;;;20.07;13.60;;;12.80;81.20;;;16.12;59.42;103542.03;4919751;29;20202;-50
2021/12/16 09:52:12;;;;;;;19.83;14.73;;;12.80;81.20;;;16.14;59.20;103540.06;4918930;29;20197;-50
2021/12/16 09:54:45;;;;;;;23.00;15.70;;;12.90;81.10;;;16.15;59.16;103536.44;4916688;29;20306;-52
2021/12/16 09:57:18;;;;;;;22.03;13.80;;;12.90;81.10;;;16.14;59.02;103533.94;4917430;29;20207;-54
2021/12/16 09:59:46;;;;;;;19.10;13.87;;;12.90;80.80;;;16.12;59.16;103541.19;4918770;29;20273;-50
2021/12/16 10:02:19;;;;;;;21.33;15.60;;;12.90;80.70;;;16.12;59.18;103536.72;4919370;29;20191;-51
2021/12/16 10:04:48;;;;;;;23.93;15.77;;;12.90;80.80;;;16.12;59.42;103542.03;4919536;29;20215;-51
2021/12/16 10:07:19;;;;;;;20.60;15.10;;;12.90;80.60;;;16.13;59.40;103543.72;4918940;29;20251;-50
2021/12/16 10:09:51;;;;;;;18.53;13.50;;;12.90;80.80;;;16.15;59.35;103541.78;4902723;29;20278;-52
2021/12/16 10:12:24;;;;;;;20.93;13.43;;;12.90;81.10;;;16.18;59.39;103546.81;4917699;29;20664;-49
2021/12/16 10:17:30;;;;;;;19.63;13.70;;;12.90;80.80;;;16.17;59.30;103545.13;4904004;29;20198;-54
2021/12/16 10:20:09;;;;;;;19.80;12.80;;;13.00;80.80;;;16.15;59.13;103546.25;4904093;29;20194;-52
2021/12/16 10:22:42;;;;;;;19.23;13.73;;;13.00;80.70;;;16.17;59.27;103550.44;4902384;29;20206;-54
2021/12/16 10:25:28;;;;;;;15.17;12.63;;;13.00;80.80;;;16.17;58.99;103538.97;4901692;29;20233;-55
2021/12/16 10:28:06;;;;;;;19.80;14.53;;;13.00;80.90;;;16.18;59.01;103552.13;4901330;29;20218;-52
2021/12/16 10:30:48;;;;;;;24.10;16.83;;;13.00;81.50;;;16.18;59.12;103546.81;4901682;29;20202;-51
2021/12/16 10:33:34;;;;;;;19.47;14.27;;;13.00;80.80;;;16.19;59.28;103542.31;4900545;29;20194;-51
2021/12/16 10:36:14;;;;;;;18.60;14.30;;;13.00;80.90;;;16.24;59.01;103546.22;4898574;29;20313;-54
2021/12/16 10:38:46;;;;;;;21.83;14.20;;;13.00;80.70;;;16.27;59.12;103540.63;4900382;29;20202;-51
2021/12/16 10:41:21;;;;;;;18.10;13.53;;;13.00;80.60;;;16.26;59.00;103538.09;4899886;29;20211;-51
2021/12/16 10:43:53;;;;;;;18.27;13.27;;;13.00;80.50;;;16.26;58.83;103544.25;4900036;29;20245;-52
2021/12/16 10:46:25;;;;;;;15.87;11.77;;;13.00;80.60;;;16.27;59.05;103553.94;4899763;29;20310;-50
2021/12/16 10:48:57;;;;;;;15.23;13.23;;;13.10;80.80;;;16.32;58.94;103555.31;4906623;29;20190;-50
2021/12/16 10:51:34;;;;;;;20.13;13.43;;;13.10;81.00;;;16.32;59.09;103555.31;4918300;29;20210;-50
2021/12/16 10:54:19;;;;;;;19.17;13.20;;;13.10;80.70;;;16.32;59.00;103563.28;4918798;29;20203;-54
2021/12/16 10:57:04;;;;;;;17.63;12.73;;;13.10;80.80;;;16.33;58.86;103570.28;4911276;29;20199;-50
2021/12/16 10:59:36;;;;;;;16.67;12.70;;;13.10;80.70;;;16.38;59.03;103574.19;4901664;29;20285;-51
2021/12/16 11:02:15;;;;;;;19.43;13.53;;;13.10;80.90;;;16.42;59.17;103572.09;4904035;29;20209;-51
2021/12/16 11:04:50;;;;;;;18.03;13.17;;;13.20;80.80;;;16.47;58.97;103575.16;4902437;29;20246;-52
2021/12/16 11:07:26;;;;;;;24.10;15.53;;;13.20;80.70;;;16.48;58.64;103574.16;4899661;29;20230;-53
2021/12/16 11:10:06;;;;;;;18.60;13.63;;;13.20;80.30;;;16.48;59.00;103579.47;4900977;29;20238;-50
2021/12/16 11:12:47;;;;;;;19.80;14.97;;;13.20;80.50;;;16.48;58.90;103585.63;4899202;29;20380;-56
2021/12/16 11:15:23;;;;;;;21.10;13.77;;;13.30;80.50;;;16.49;58.54;103582.00;4914357;29;20305;-52
2021/12/16 11:17:56;;;;;;;21.00;14.83;;;13.30;80.30;;;16.48;58.83;103574.16;4914934;29;20617;-51
2021/12/16 11:20:32;;;;;;;23.23;15.37;;;13.30;80.10;;;16.45;58.68;103579.78;4915789;29;20632;-52
2021/12/16 11:23:05;;;;;;;22.23;14.20;;;13.30;80.00;;;16.45;58.84;103575.28;4918828;29;20194;-53
2021/12/16 11:25:36;;;;;;;19.40;13.23;;;13.20;80.20;;;16.47;58.73;103573.34;4914553;29;20668;-51
2021/12/16 11:28:18;;;;;;;18.00;13.50;;;13.20;80.20;;;16.45;58.72;103580.59;4917355;29;20206;-51
2021/12/16 11:30:54;;;;;;;23.00;14.27;;;13.20;80.60;;;16.51;58.88;103584.50;4917514;29;20217;-51
2021/12/16 11:33:33;;;;;;;15.57;11.43;;;13.30;81.30;;;16.51;58.82;103588.06;4916761;29;20711;-53
2021/12/16 11:36:10;;;;;;;19.03;11.07;;;13.30;80.40;;;16.54;58.71;103590.44;4912817;29;20254;-53
2021/12/16 11:38:44;;;;;;;17.40;12.73;;;13.30;80.30;;;16.58;58.52;103596.28;4898427;29;20190;-53
2021/12/16 11:41:24;;;;;;;18.57;13.13;;;13.40;80.00;;;16.58;58.44;103597.13;4902241;29;20207;-52
2021/12/16 11:44:01;;;;;;;14.73;11.23;;;13.40;80.00;;;16.61;58.36;103590.69;4901700;29;20203;-52
2021/12/16 11:46:35;;;;;;;16.13;10.67;;;13.40;79.90;;;16.62;58.16;103584.38;4901629;29;20628;-54
2021/12/16 11:49:24;;;;;;;15.73;10.93;;;13.40;79.60;;;16.60;58.44;103584.53;4907758;29;20289;-52
2021/12/16 11:51:59;;;;;;;14.47;10.77;;;13.40;79.60;;;16.62;58.12;103592.34;4900892;29;20984;-53
2021/12/16 11:54:36;;;;;;;16.17;11.50;;;13.40;79.70;;;16.60;58.15;103595.16;4920565;29;20708;-51
2021/12/16 11:57:13;;;;;;;17.67;11.80;;;13.30;79.40;;;16.58;58.43;103590.97;4935561;29;20273;-53
2021/12/16 11:59:46;;;;;;;16.53;12.67;;;13.30;79.60;;;16.57;58.07;103584.81;4897175;29;20338;-52
2021/12/16 12:02:28;;;;;;;14.30;10.07;;;13.40;79.50;;;16.54;58.36;103584.28;4898107;29;20203;-54
2021/12/16 12:05:17;;;;;;;16.33;11.20;;;13.30;79.50;;;16.52;58.28;103581.72;4928145;29;20781;-52
2021/12/16 12:07:49;;;;;;;14.47;10.23;;;13.30;79.60;;;16.56;58.31;103587.63;4927523;29;20206;-50
2021/12/16 12:10:33;;;;;;;15.97;11.03;;;13.30;79.40;;;16.53;58.27;103582.59;4918399;29;20237;-50
2021/12/16 12:13:06;;;;;;;15.17;10.83;;;13.30;79.50;;;16.57;58.14;103589.31;4918678;29;20273;-52
2021/12/16 12:15:53;;;;;;;13.27;10.30;;;13.30;79.30;;;16.54;58.10;103589.59;4920677;29;20218;-52
2021/12/16 12:18:38;;;;;;;18.53;11.90;;;13.40;79.60;;;16.56;58.25;103584.97;4916418;29;20232;-51
2021/12/16 12:21:23;;;;;;;15.53;11.63;;;13.40;79.50;;;16.58;58.03;103585.66;4916541;29;20638;-51
2021/12/16 12:23:56;;;;;;;14.23;11.90;;;13.40;79.30;;;16.60;57.86;103583.69;4916712;29;20549;-51
2021/12/16 12:26:27;;;;;;;14.07;10.90;;;13.40;79.10;;;16.58;58.12;103585.66;4916587;29;20260;-52
2021/12/16 12:28:59;;;;;;;20.97;13.80;;;13.40;78.90;;;16.58;58.01;103578.53;4916345;29;20306;-52
2021/12/16 12:31:34;;;;;;;16.97;11.37;;;13.40;79.00;;;16.60;57.83;103581.88;4916077;29;20205;-52
2021/12/16 12:34:02;;;;;;;13.97;11.77;;;13.40;79.10;;;16.62;57.99;103577.25;4919242;29;20705;-51
2021/12/16 12:36:30;;;;;;;20.37;17.13;;;13.40;78.90;;;16.61;57.90;103572.06;4925664;29;20253;-52
2021/12/16 12:38:57;;;;;;;18.20;16.10;;;13.40;79.30;;;16.60;57.89;103573.03;4904259;29;20190;-51
2021/12/16 12:41:25;;;;;;;19.20;16.50;;;13.40;78.60;;;16.63;57.92;103572.75;4917464;29;20195;-50
2021/12/16 12:43:54;;;;;;;16.67;14.43;;;13.40;78.40;;;16.65;57.84;103576.13;4916819;29;20286;-50
2021/12/16 12:46:22;;;;;;;18.50;14.17;;;13.40;78.40;;;16.66;57.49;103583.94;4914593;29;20395;-51
2021/12/16 12:48:53;;;;;;;16.77;12.37;;;13.40;78.10;;;16.67;57.37;103585.63;4927497;29;20210;-51
2021/12/16 12:51:32;;;;;;;17.43;12.73;;;13.40;77.90;;;16.66;57.28;103599.09;4917809;29;20273;-51
2021/12/16 12:54:14;;;;;;;15.23;10.70;;;13.40;77.90;;;16.68;57.38;103597.13;4924342;29;20205;-52
2021/12/16 12:56:42;;;;;;;11.83;9.40;;;13.40;77.80;;;16.69;57.32;103588.13;4926165;29;20266;-50
2021/12/16 12:59:15;;;;;;;12.67;9.97;;;13.40;77.50;;;16.68;57.01;103586.47;4925645;29;20559;-54